Time;durP1;ratioP1;P1;durP2;ratioP2;P2;SDS_P1;SDS_P2;PMS_P1;PMS_P2;Temp;Humidity;BMP_temperature;BMP_pressure;BME280_temperature;BME280_humidity;BME280_pressure;Samples;Min_cycle;Max_cycle;Signal;HPM_P1;HPM_P2
2023/05/13 00:00:44;;;;;;;1.70;1.00;;;;;;;16.75;62.31;101439.28;4988623;28;20077;-59
2023/05/13 00:03:10;;;;;;;1.63;1.13;;;;;;;16.79;62.28;101437.38;4988110;28;20104;-58
2023/05/13 00:05:36;;;;;;;1.52;0.98;;;;;;;16.76;62.54;101437.34;4988347;28;20088;-61
2023/05/13 00:08:05;;;;;;;1.15;0.95;;;;;;;16.69;62.44;101431.84;4984867;28;20033;-62
2023/05/13 00:10:34;;;;;;;3.38;1.00;;;;;;;16.67;62.40;101432.22;4967172;28;20045;-60
2023/05/13 00:13:00;;;;;;;1.33;1.02;;;;;;;16.71;62.81;101434.97;4989435;28;20069;-61
2023/05/13 00:15:27;;;;;;;1.10;0.90;;;;;;;16.66;62.78;101433.41;4972010;28;20026;-61
2023/05/13 00:17:52;;;;;;;1.33;0.95;;;;;;;16.68;62.62;101431.09;4971518;28;21639;-60
2023/05/13 00:20:18;;;;;;;1.75;1.20;;;;;;;16.65;62.37;101431.03;4989544;28;20105;-61
2023/05/13 00:22:44;;;;;;;3.17;1.15;;;;;;;16.50;63.20;101430.16;4972325;28;20038;-61
2023/05/13 00:25:09;;;;;;;2.22;1.13;;;;;;;16.36;64.18;101434.63;4985413;28;20085;-61
2023/05/13 00:27:35;;;;;;;3.72;1.02;;;;;;;16.16;64.88;101432.13;4974110;28;20061;-61
2023/05/13 00:30:00;;;;;;;1.75;1.20;;;;;;;16.14;65.27;101434.41;4963624;28;20042;-62
2023/05/13 00:32:26;;;;;;;1.10;1.00;;;;;;;16.03;65.91;101438.97;4969273;28;20041;-62
2023/05/13 00:34:52;;;;;;;1.40;0.77;;;;;;;16.23;64.94;101434.91;4984544;28;20469;-61
2023/05/13 00:37:18;;;;;;;2.35;1.15;;;;;;;16.22;65.10;101427.13;4974224;28;20114;-61
2023/05/13 00:39:43;;;;;;;1.70;1.15;;;;;;;16.26;64.46;101428.72;4984947;28;20563;-61
2023/05/13 00:42:12;;;;;;;1.63;1.08;;;;;;;16.33;64.18;101424.50;4982799;28;20025;-61
2023/05/13 00:44:38;;;;;;;1.42;0.73;;;;;;;16.22;64.35;101430.63;4987322;28;20061;-61
2023/05/13 00:47:10;;;;;;;2.00;0.95;;;;;;;16.26;64.65;101434.16;4972911;28;20031;-60
2023/05/13 00:49:36;;;;;;;1.13;1.00;;;;;;;16.21;64.35;101423.63;4964319;28;20042;-60
2023/05/13 00:52:01;;;;;;;0.80;0.80;;;;;;;16.31;64.32;101435.78;4986499;28;20029;-61
2023/05/13 00:54:28;;;;;;;1.25;0.75;;;;;;;16.24;64.38;101428.31;4982938;28;20027;-60
2023/05/13 00:56:55;;;;;;;1.40;0.93;;;;;;;16.17;65.03;101430.97;4987474;28;20049;-63
2023/05/13 00:59:29;;;;;;;2.20;1.33;;;;;;;16.18;65.03;101435.25;4981680;28;20039;-58
2023/05/13 01:02:19;;;;;;;1.33;0.90;;;;;;;16.10;64.97;101430.88;4990098;28;20046;-61
2023/05/13 01:04:45;;;;;;;2.75;0.75;;;;;;;16.08;65.46;101432.44;4957603;28;20042;-62
2023/05/13 01:07:16;;;;;;;1.58;1.35;;;;;;;16.09;65.47;101432.06;4970460;28;20034;-62
2023/05/13 01:09:42;;;;;;;;;;;;;;;16.08;65.38;101422.34;4975082;28;20084;-62
2023/05/13 01:12:13;;;;;;;2.50;1.40;;;;;;;15.91;66.01;101430.31;4973735;28;20507;-62
2023/05/13 01:14:52;;;;;;;1.77;1.02;;;;;;;15.92;66.21;101438.06;4958539;28;20511;-61
2023/05/13 01:17:27;;;;;;;3.08;1.10;;;;;;;15.86;66.32;101438.78;4986926;28;20489;-59
2023/05/13 01:19:56;;;;;;;2.10;1.13;;;;;;;15.82;66.58;101427.88;4966636;28;20046;-64
2023/05/13 01:22:24;;;;;;;4.88;1.70;;;;;;;15.74;67.28;101433.56;4970051;28;20030;-59
2023/05/13 01:24:50;;;;;;;1.98;1.08;;;;;;;15.69;67.75;101433.91;4986732;28;20123;-62
2023/05/13 01:27:16;;;;;;;1.50;1.10;;;;;;;15.59;67.91;101440.78;4972363;28;20037;-59
2023/05/13 01:29:43;;;;;;;1.73;1.05;;;;;;;15.45;68.94;101435.16;4989647;28;20026;-61
2023/05/13 01:32:10;;;;;;;1.90;1.17;;;;;;;15.26;69.54;101433.34;4964067;28;20026;-62
2023/05/13 01:34:39;;;;;;;1.80;1.10;;;;;;;15.18;70.32;101430.88;4956142;28;20035;-59
2023/05/13 01:37:05;;;;;;;1.48;1.38;;;;;;;15.16;70.77;101438.59;4968244;28;20140;-61
2023/05/13 01:39:31;;;;;;;3.00;1.90;;;;;;;15.15;70.71;101440.56;4968067;28;20030;-59
2023/05/13 01:42:01;;;;;;;2.08;1.20;;;;;;;15.17;70.43;101440.97;4976168;28;20045;-62
2023/05/13 01:44:26;;;;;;;1.40;0.88;;;;;;;15.13;71.03;101444.78;4979806;28;20561;-61
2023/05/13 01:46:52;;;;;;;2.08;1.58;;;;;;;15.18;70.71;101444.44;4978341;28;20038;-63
2023/05/13 01:49:18;;;;;;;2.10;0.98;;;;;;;15.01;71.38;101444.97;4946597;28;20041;-57
2023/05/13 01:51:44;;;;;;;2.58;0.70;;;;;;;14.95;71.90;101438.28;4942222;28;20073;-58
2023/05/13 01:54:10;;;;;;;3.83;1.42;;;;;;;15.09;71.51;101449.38;4971072;28;20030;-60
2023/05/13 01:56:39;;;;;;;1.85;1.10;;;;;;;15.19;71.44;101440.59;4963389;28;20049;-62
2023/05/13 01:59:07;;;;;;;2.35;1.52;;;;;;;15.15;71.57;101445.97;4975756;28;20026;-59
2023/05/13 02:01:32;;;;;;;1.35;0.90;;;;;;;15.08;71.68;101443.16;4989217;28;20057;-60
2023/05/13 02:04:00;;;;;;;2.45;1.63;;;;;;;15.05;71.82;101443.09;4988008;28;20513;-61
2023/05/13 02:06:26;;;;;;;2.03;1.05;;;;;;;15.00;72.07;101454.28;4958436;28;20671;-59
2023/05/13 02:08:53;;;;;;;1.05;0.90;;;;;;;14.94;72.89;101448.34;4971266;28;20456;-63
2023/05/13 02:11:39;;;;;;;2.97;1.77;;;;;;;14.93;72.92;101440.59;4972078;28;20038;-57
2023/05/13 02:14:05;;;;;;;4.18;1.90;;;;;;;15.09;72.37;101442.00;4908329;29;20090;-58
2023/05/13 02:16:32;;;;;;;2.20;1.27;;;;;;;15.22;71.45;101437.13;4909808;29;20036;-57
2023/05/13 02:18:58;;;;;;;3.45;2.10;;;;;;;15.19;71.92;101444.06;4914919;29;20122;-58
2023/05/13 02:21:27;;;;;;;2.40;1.40;;;;;;;15.19;71.95;101435.94;4930758;29;20126;-62
2023/05/13 02:23:52;;;;;;;3.28;1.80;;;;;;;15.20;71.91;101431.28;4909723;29;20139;-57
2023/05/13 02:26:18;;;;;;;2.70;1.45;;;;;;;15.11;72.33;101436.22;4911359;29;20584;-59
2023/05/13 02:28:43;;;;;;;2.63;1.08;;;;;;;15.20;71.97;101434.81;4911678;29;20084;-61
2023/05/13 02:31:11;;;;;;;3.60;1.48;;;;;;;15.19;72.35;101438.66;4885431;29;20047;-60
2023/05/13 02:33:37;;;;;;;2.47;1.65;;;;;;;15.14;72.18;101438.97;4912230;29;20040;-61
2023/05/13 02:36:03;;;;;;;2.38;1.17;;;;;;;15.11;72.56;101439.72;4910304;29;20095;-62
2023/05/13 02:38:28;;;;;;;2.40;1.30;;;;;;;15.14;72.38;101440.91;4894898;29;20091;-57
2023/05/13 02:40:54;;;;;;;2.40;1.35;;;;;;;15.14;72.76;101440.91;4905977;29;20040;-60
2023/05/13 02:43:20;;;;;;;3.28;1.67;;;;;;;15.14;72.76;101447.13;4892368;29;20122;-63
2023/05/13 02:45:55;;;;;;;4.65;1.48;;;;;;;15.03;72.61;101440.75;4892438;29;20048;-58
2023/05/13 02:48:21;;;;;;;2.95;1.58;;;;;;;14.95;73.37;101446.44;4900100;29;20140;-59
2023/05/13 02:50:46;;;;;;;2.97;1.80;;;;;;;15.07;72.93;101444.31;4932546;28;20445;-59
2023/05/13 02:53:12;;;;;;;4.40;1.52;;;;;;;14.94;73.39;101436.75;4954923;28;20028;-62
2023/05/13 02:55:46;;;;;;;5.28;2.33;;;;;;;14.92;73.77;101439.81;4966218;28;20042;-62
2023/05/13 02:58:11;;;;;;;3.63;1.55;;;;;;;14.80;74.34;101436.50;4958607;28;20405;-63
2023/05/13 03:00:37;;;;;;;4.68;2.35;;;;;;;14.75;75.14;101434.88;4972932;28;20026;-60
2023/05/13 03:03:03;;;;;;;3.63;1.80;;;;;;;14.55;75.47;101436.13;4989575;28;20053;-61
2023/05/13 03:05:28;;;;;;;3.10;1.65;;;;;;;14.68;74.95;101440.19;4971637;28;20034;-59
2023/05/13 03:07:54;;;;;;;3.13;1.77;;;;;;;14.67;75.12;101433.22;4965825;28;20040;-61
2023/05/13 03:10:19;;;;;;;3.30;2.10;;;;;;;14.68;75.69;101431.28;4975436;28;20058;-58
2023/05/13 03:12:45;;;;;;;2.45;1.65;;;;;;;14.78;74.90;101430.66;4967083;28;20034;-62
2023/05/13 03:15:11;;;;;;;3.65;1.70;;;;;;;14.80;74.90;101437.31;4979914;28;20066;-59
2023/05/13 03:17:37;;;;;;;6.78;1.80;;;;;;;14.75;75.33;101432.16;4969539;28;20033;-62
2023/05/13 03:20:03;;;;;;;2.80;1.38;;;;;;;14.70;75.36;101437.13;4972753;28;20042;-62
2023/05/13 03:22:30;;;;;;;2.17;1.27;;;;;;;14.64;75.63;101443.97;4969585;28;20610;-61
2023/05/13 03:24:57;;;;;;;3.25;1.70;;;;;;;14.60;75.99;101443.94;4968323;28;20269;-62
2023/05/13 03:27:26;;;;;;;4.25;1.45;;;;;;;14.59;76.08;101441.59;4971632;28;20022;-62
2023/05/13 03:29:51;;;;;;;2.65;2.05;;;;;;;14.67;75.55;101446.00;4972046;28;20436;-62
2023/05/13 03:32:17;;;;;;;1.33;1.23;;;;;;;14.62;75.72;101440.84;4953314;28;20413;-61
2023/05/13 03:34:43;;;;;;;2.58;1.63;;;;;;;14.66;75.66;101449.84;4969596;28;20041;-62
2023/05/13 03:37:09;;;;;;;2.95;2.05;;;;;;;14.55;75.87;101446.97;4956358;28;20030;-58
2023/05/13 03:39:35;;;;;;;3.08;2.00;;;;;;;14.44;76.68;101445.97;4951877;28;20053;-59
2023/05/13 03:42:02;;;;;;;5.05;2.25;;;;;;;14.38;77.00;101442.78;4962295;28;20062;-62
2023/05/13 03:44:27;;;;;;;2.58;1.85;;;;;;;14.48;77.21;101451.47;4978536;28;20035;-62
2023/05/13 03:46:56;;;;;;;3.55;1.77;;;;;;;14.48;77.07;101449.53;4957617;28;20109;-62
2023/05/13 03:49:26;;;;;;;3.13;2.37;;;;;;;14.45;77.19;101450.25;4935038;28;20026;-62
2023/05/13 03:51:52;;;;;;;2.13;1.55;;;;;;;14.48;76.69;101456.91;4958743;28;20050;-59
2023/05/13 03:54:18;;;;;;;2.78;1.70;;;;;;;14.51;76.98;101458.88;4971014;28;20081;-63
2023/05/13 03:56:44;;;;;;;1.80;1.55;;;;;;;14.42;76.65;101453.69;4986256;28;20038;-63
2023/05/13 03:59:09;;;;;;;2.15;1.85;;;;;;;14.47;77.11;101456.09;4968243;28;20022;-63
2023/05/13 04:01:35;;;;;;;2.55;1.58;;;;;;;14.43;77.03;101456.06;4985236;28;20041;-60
2023/05/13 04:04:01;;;;;;;1.60;1.30;;;;;;;14.42;77.31;101454.47;4989696;28;20034;-62
2023/05/13 04:06:26;;;;;;;3.05;1.52;;;;;;;14.48;76.92;101459.59;4970619;28;20026;-62
2023/05/13 04:08:51;;;;;;;2.22;1.52;;;;;;;14.54;77.21;101455.47;4965750;28;20019;-62
2023/05/13 04:11:17;;;;;;;2.22;1.60;;;;;;;14.48;76.60;101459.59;4984718;28;20039;-63
2023/05/13 04:13:44;;;;;;;3.40;1.83;;;;;;;14.48;77.35;101458.44;4966237;28;20440;-62
2023/05/13 04:16:13;;;;;;;2.92;1.90;;;;;;;14.41;77.35;101455.63;4977047;28;20031;-62
2023/05/13 04:18:40;;;;;;;2.33;1.77;;;;;;;14.37;77.62;101460.19;4965887;28;20023;-61
2023/05/13 04:21:06;;;;;;;2.75;1.67;;;;;;;14.44;77.85;101468.44;4990090;28;20078;-63
2023/05/13 04:23:32;;;;;;;4.32;2.00;;;;;;;14.45;77.36;101469.22;4985069;28;20409;-62
2023/05/13 04:25:57;;;;;;;3.15;1.60;;;;;;;14.46;77.66;101458.03;4982785;28;20042;-62
2023/05/13 04:28:23;;;;;;;3.97;1.90;;;;;;;14.45;77.43;101461.09;4958696;28;20113;-63
2023/05/13 04:30:49;;;;;;;4.03;1.75;;;;;;;14.51;77.59;101464.28;4966294;28;20022;-60
2023/05/13 04:33:15;;;;;;;3.58;2.00;;;;;;;14.61;76.95;101467.19;4967639;28;20107;-60
2023/05/13 04:35:43;;;;;;;2.10;1.38;;;;;;;14.54;77.49;101466.31;4961390;28;20034;-61
2023/05/13 04:38:09;;;;;;;2.80;1.90;;;;;;;14.60;77.37;101464.84;4953541;28;20023;-62
2023/05/13 04:40:37;;;;;;;2.30;1.73;;;;;;;14.55;77.09;101468.66;4963312;28;20162;-61
2023/05/13 04:43:11;;;;;;;2.33;1.58;;;;;;;14.52;76.99;101469.34;4950348;28;20485;-62
2023/05/13 04:45:46;;;;;;;3.20;1.95;;;;;;;14.55;77.16;101476.00;4966597;28;20034;-61
2023/05/13 04:48:12;;;;;;;2.13;1.42;;;;;;;14.52;77.35;101482.91;4971194;28;20046;-63
2023/05/13 04:50:38;;;;;;;2.00;1.20;;;;;;;14.63;77.06;101472.25;4985103;22;20042;-57
2023/05/13 04:53:03;;;;;;;3.40;1.67;;;;;;;14.73;77.13;101479.78;4966893;28;20049;-59
2023/05/13 04:55:29;;;;;;;2.33;1.67;;;;;;;14.78;76.90;101490.31;4969335;28;20030;-60
2023/05/13 04:57:55;;;;;;;2.03;1.40;;;;;;;14.85;76.55;101482.28;4968003;28;20035;-58
2023/05/13 05:00:21;;;;;;;2.00;1.60;;;;;;;14.81;76.57;101476.81;4960905;28;20420;-58
2023/05/13 05:02:48;;;;;;;2.47;1.85;;;;;;;14.84;76.50;101486.97;4963823;28;20170;-59
2023/05/13 05:05:14;;;;;;;2.00;1.65;;;;;;;14.88;76.63;101476.16;4970366;28;20109;-59
2023/05/13 05:07:40;;;;;;;1.80;1.23;;;;;;;14.91;76.25;101478.94;4974510;28;20034;-59
2023/05/13 05:10:07;;;;;;;3.80;1.83;;;;;;;14.99;76.16;101477.09;4942994;28;20513;-58
2023/05/13 05:12:36;;;;;;;2.85;2.17;;;;;;;15.06;75.71;101480.72;4965901;28;20034;-59
2023/05/13 05:15:04;;;;;;;1.95;1.55;;;;;;;15.15;76.19;101486.69;4972883;28;20590;-58
2023/05/13 05:17:31;;;;;;;5.07;1.95;;;;;;;15.20;75.80;101488.28;4970108;28;20089;-58
2023/05/13 05:19:59;;;;;;;2.28;1.52;;;;;;;15.39;74.81;101488.19;4969426;28;20429;-58
2023/05/13 05:22:26;;;;;;;4.70;1.90;;;;;;;15.54;74.12;101492.72;4968365;28;20038;-59
2023/05/13 05:24:51;;;;;;;2.53;1.65;;;;;;;15.67;73.51;101485.88;4976894;28;20041;-58
2023/05/13 05:27:18;;;;;;;3.03;1.92;;;;;;;15.94;72.98;101497.47;4972015;28;20027;-57
2023/05/13 05:29:44;;;;;;;5.55;2.40;;;;;;;16.18;70.64;101495.03;4967930;28;20062;-59
2023/05/13 05:32:13;;;;;;;1.77;1.27;;;;;;;16.52;70.34;101492.31;4970403;28;20540;-60
2023/05/13 05:34:38;;;;;;;3.25;1.60;;;;;;;16.78;69.72;101498.38;4974339;28;20126;-59
2023/05/13 05:37:04;;;;;;;2.35;1.30;;;;;;;17.10;67.77;101504.09;4971117;28;20413;-58
2023/05/13 05:39:32;;;;;;;2.45;1.33;;;;;;;17.48;66.42;101502.81;4971360;28;20129;-59
2023/05/13 05:41:57;;;;;;;4.03;1.63;;;;;;;17.60;64.51;101500.56;4972322;28;20125;-57
2023/05/13 05:44:23;;;;;;;1.92;1.10;;;;;;;17.76;64.09;101501.03;4955997;28;20049;-55
2023/05/13 05:46:51;;;;;;;1.17;1.00;;;;;;;17.99;63.62;101500.72;4970890;28;20062;-59
2023/05/13 05:49:16;;;;;;;1.67;1.17;;;;;;;17.83;61.15;101498.31;4969851;28;20046;-55
2023/05/13 05:51:42;;;;;;;1.75;1.10;;;;;;;18.15;62.45;101505.84;4975374;28;20029;-57
2023/05/13 05:54:08;;;;;;;1.98;1.15;;;;;;;18.39;61.72;101500.44;4966297;28;20030;-57
2023/05/13 05:56:33;;;;;;;2.95;1.40;;;;;;;18.74;59.79;101503.28;4973526;28;20054;-58
2023/05/13 05:59:01;;;;;;;1.40;1.27;;;;;;;18.87;58.64;101512.63;4992024;28;20531;-55
2023/05/13 06:01:32;;;;;;;5.47;1.33;;;;;;;19.00;58.29;101514.97;4971593;28;20073;-58
2023/05/13 06:03:57;;;;;;;1.65;0.82;;;;;;;19.10;57.23;101517.72;4971346;28;20039;-58
2023/05/13 06:06:22;;;;;;;1.00;0.90;;;;;;;19.22;56.54;101516.53;4970617;28;20057;-54
2023/05/13 06:08:48;;;;;;;1.88;1.40;;;;;;;19.37;57.33;101515.38;4970597;28;20025;-59
2023/05/13 06:11:13;;;;;;;1.63;1.02;;;;;;;19.48;55.88;101516.13;4969721;28;20736;-57
2023/05/13 06:13:41;;;;;;;2.22;1.27;;;;;;;19.58;55.53;101510.63;4966779;28;20053;-58
2023/05/13 06:16:06;;;;;;;1.55;1.10;;;;;;;19.75;55.57;101519.94;4970490;28;20141;-59
2023/05/13 06:18:32;;;;;;;1.13;0.77;;;;;;;19.92;55.01;101519.09;4976108;28;20393;-55
2023/05/13 06:20:57;;;;;;;2.13;1.27;;;;;;;20.07;53.47;101520.63;4978576;28;20034;-54
2023/05/13 06:23:26;;;;;;;1.35;0.90;;;;;;;20.13;52.83;101529.19;4966592;28;20094;-55
2023/05/13 06:25:51;;;;;;;1.33;1.00;;;;;;;20.16;53.30;101529.16;4971204;28;20049;-57
2023/05/13 06:28:17;;;;;;;2.58;1.30;;;;;;;20.28;52.23;101525.22;4979299;28;20019;-54
2023/05/13 06:30:43;;;;;;;1.27;0.98;;;;;;;20.34;53.66;101521.66;4977358;28;20485;-57
2023/05/13 06:33:10;;;;;;;0.80;0.73;;;;;;;20.39;52.50;101528.69;4969462;28;20041;-55
2023/05/13 06:35:36;;;;;;;1.50;0.80;;;;;;;20.42;51.74;101525.91;4954387;28;20027;-55
2023/05/13 06:38:03;;;;;;;1.60;0.98;;;;;;;20.58;52.05;101528.16;4967617;28;20401;-56
2023/05/13 06:40:29;;;;;;;1.10;0.70;;;;;;;20.67;52.11;101518.31;4965447;28;20041;-59
2023/05/13 06:42:55;;;;;;;1.10;0.82;;;;;;;20.76;51.92;101523.34;4960827;28;20085;-58
2023/05/13 06:45:27;;;;;;;0.80;0.73;;;;;;;20.93;51.60;101525.19;4967634;28;20031;-58
2023/05/13 06:47:53;;;;;;;2.00;1.27;;;;;;;21.00;50.98;101527.09;4969306;28;20035;-59
2023/05/13 06:50:19;;;;;;;1.33;0.85;;;;;;;20.99;50.45;101525.53;4967058;28;20412;-58
2023/05/13 06:52:45;;;;;;;1.27;1.15;;;;;;;21.12;50.08;101519.16;4969029;28;20038;-59
2023/05/13 06:55:11;;;;;;;1.83;0.98;;;;;;;21.21;50.31;101526.94;4968382;28;20031;-58
2023/05/13 06:57:38;;;;;;;1.30;0.90;;;;;;;21.29;50.39;101531.16;4969216;28;20018;-57
2023/05/13 07:00:06;;;;;;;2.60;1.02;;;;;;;21.40;51.33;101521.66;4979191;28;20038;-56
2023/05/13 07:02:31;;;;;;;1.15;0.77;;;;;;;21.54;50.74;101531.69;4976694;28;20919;-58
2023/05/13 07:04:57;;;;;;;2.20;0.70;;;;;;;21.69;50.79;101535.06;4965768;28;20035;-57
2023/05/13 07:07:23;;;;;;;1.15;0.95;;;;;;;21.85;49.28;101538.84;4973268;28;20030;-55
2023/05/13 07:09:48;;;;;;;1.98;1.08;;;;;;;21.90;49.09;101538.38;4973008;28;20039;-56
2023/05/13 07:12:14;;;;;;;1.63;0.90;;;;;;;21.93;48.46;101539.53;4970801;28;20026;-58
2023/05/13 07:14:42;;;;;;;1.33;0.88;;;;;;;21.86;48.33;101537.63;4967199;28;20544;-55
2023/05/13 07:17:08;;;;;;;1.30;0.90;;;;;;;22.02;48.71;101542.53;4965788;28;20043;-56
2023/05/13 07:19:33;;;;;;;1.48;1.10;;;;;;;22.19;49.24;101536.03;4973709;28;20041;-59
2023/05/13 07:21:58;;;;;;;1.17;0.80;;;;;;;22.30;49.05;101537.47;4975615;28;20049;-59
2023/05/13 07:24:24;;;;;;;3.53;1.05;;;;;;;22.47;48.00;101549.41;4971039;28;20065;-57
2023/05/13 07:26:49;;;;;;;1.02;0.88;;;;;;;22.61;48.20;101535.47;4966219;28;20096;-57
2023/05/13 07:29:15;;;;;;;1.67;0.95;;;;;;;22.71;48.69;101533.75;4966017;28;20061;-57
2023/05/13 07:31:40;;;;;;;1.10;0.80;;;;;;;22.77;48.21;101538.38;4959904;28;20042;-56
2023/05/13 07:34:06;;;;;;;1.15;0.90;;;;;;;22.87;47.13;101533.91;4968848;28;20097;-56
2023/05/13 07:36:31;;;;;;;0.70;0.60;;;;;;;23.00;47.06;101530.16;4949008;28;20031;-59
2023/05/13 07:38:57;;;;;;;1.70;0.88;;;;;;;22.93;47.16;101530.28;4965760;28;20038;-57
2023/05/13 07:41:22;;;;;;;1.08;0.90;;;;;;;23.10;46.69;101531.94;4959888;28;20030;-55
2023/05/13 07:43:48;;;;;;;1.85;0.73;;;;;;;23.25;45.75;101522.25;4959948;28;20026;-57
2023/05/13 07:46:13;;;;;;;0.80;0.80;;;;;;;23.35;46.53;101528.00;4967665;28;20603;-58
2023/05/13 07:48:39;;;;;;;0.80;0.80;;;;;;;23.39;45.32;101532.25;4977289;28;20405;-58
2023/05/13 07:51:04;;;;;;;1.13;0.73;;;;;;;23.35;44.72;101530.75;4960981;28;20043;-59
2023/05/13 07:53:30;;;;;;;1.25;1.00;;;;;;;23.33;45.83;101528.44;4967267;28;20031;-57
2023/05/13 07:55:55;;;;;;;3.47;0.80;;;;;;;23.48;46.90;101528.97;4972267;28;20074;-58
2023/05/13 07:58:21;;;;;;;1.30;0.85;;;;;;;23.69;46.70;101525.81;4970606;28;20039;-53
2023/05/13 08:00:48;;;;;;;1.23;0.73;;;;;;;23.83;46.32;101529.03;4957082;28;20038;-59
2023/05/13 08:03:15;;;;;;;1.48;0.80;;;;;;;23.96;45.25;101524.44;4961377;28;20065;-58
2023/05/13 08:06:01;;;;;;;1.00;0.88;;;;;;;24.04;44.86;101527.88;4965436;28;20038;-54
2023/05/13 08:08:26;;;;;;;0.80;0.80;;;;;;;24.01;44.54;101532.22;4916706;29;20044;-59
2023/05/13 08:10:52;;;;;;;1.70;1.00;;;;;;;24.11;44.62;101530.47;4919530;29;20054;-56
2023/05/13 08:13:17;;;;;;;1.20;1.00;;;;;;;24.28;46.21;101534.03;4924006;29;20055;-54
2023/05/13 08:15:43;;;;;;;1.00;0.90;;;;;;;24.41;44.65;101534.94;4922855;29;20054;-60
2023/05/13 08:18:08;;;;;;;1.23;0.80;;;;;;;24.53;44.77;101535.03;4925587;29;20051;-58
2023/05/13 08:20:34;;;;;;;1.00;0.73;;;;;;;24.68;44.74;101536.25;4913207;29;20048;-57
2023/05/13 08:23:00;;;;;;;0.98;0.88;;;;;;;24.75;43.68;101530.63;4915925;29;20094;-60
2023/05/13 08:25:26;;;;;;;2.35;1.02;;;;;;;24.84;42.39;101535.50;4909964;29;20051;-58
2023/05/13 08:27:52;;;;;;;1.73;1.00;;;;;;;24.85;41.99;101540.59;4904417;29;20050;-57
2023/05/13 08:30:18;;;;;;;1.05;0.77;;;;;;;24.77;41.90;101543.97;4908477;29;20032;-57
2023/05/13 08:32:44;;;;;;;1.42;0.93;;;;;;;24.89;41.87;101535.75;4920606;29;20051;-54
2023/05/13 08:35:09;;;;;;;1.20;0.95;;;;;;;25.07;41.32;101531.81;4924406;29;20439;-55
2023/05/13 08:37:34;;;;;;;1.08;0.88;;;;;;;25.07;42.32;101535.34;4918111;29;20044;-55
2023/05/13 08:40:01;;;;;;;3.75;1.08;;;;;;;25.23;41.92;101531.78;4921185;29;20083;-54
2023/05/13 08:42:32;;;;;;;0.95;0.80;;;;;;;25.21;41.94;101536.94;4925437;29;20581;-54
2023/05/13 08:45:02;;;;;;;0.63;0.63;;;;;;;25.36;42.32;101546.44;4933000;28;20043;-57
2023/05/13 08:48:06;;;;;;;1.05;0.80;;;;;;;25.57;42.35;101541.13;4965083;28;20041;-57
2023/05/13 08:50:32;;;;;;;0.85;0.60;;;;;;;25.62;41.34;101543.38;4957769;28;20452;-58
2023/05/13 08:52:59;;;;;;;1.20;0.80;;;;;;;25.65;41.30;101536.19;4958527;28;20046;-60
2023/05/13 08:55:26;;;;;;;1.20;0.85;;;;;;;25.89;41.79;101534.72;4959871;28;20463;-60
2023/05/13 08:57:51;;;;;;;1.75;0.98;;;;;;;26.00;41.74;101534.44;4967322;28;20038;-60
2023/05/13 09:00:18;;;;;;;1.77;0.75;;;;;;;25.98;41.03;101529.31;4967426;28;20121;-59
2023/05/13 09:02:43;;;;;;;1.02;0.90;;;;;;;26.14;39.86;101532.03;4964459;28;20054;-57
2023/05/13 09:05:09;;;;;;;1.02;0.75;;;;;;;26.21;38.64;101540.09;4966091;28;20062;-59
2023/05/13 09:07:36;;;;;;;1.73;1.13;;;;;;;26.29;40.19;101535.91;4963724;28;20018;-59
2023/05/13 09:10:06;;;;;;;1.10;0.63;;;;;;;26.42;39.53;101531.16;4966782;28;20047;-57
2023/05/13 09:12:53;;;;;;;0.80;0.75;;;;;;;26.74;38.30;101544.03;4968987;28;20035;-60
2023/05/13 09:15:23;;;;;;;2.00;0.80;;;;;;;26.72;38.07;101541.72;4960924;28;20090;-57
2023/05/13 09:18:02;;;;;;;0.85;0.82;;;;;;;26.78;38.48;101536.38;4963948;28;20396;-60
2023/05/13 09:20:28;;;;;;;0.80;0.80;;;;;;;26.91;38.13;101530.81;4968633;28;20042;-59
2023/05/13 09:22:56;;;;;;;1.23;0.90;;;;;;;27.12;37.78;101546.75;4972050;28;20034;-57
2023/05/13 09:25:23;;;;;;;1.85;0.75;;;;;;;26.81;35.78;101543.03;4971729;28;20035;-59
2023/05/13 09:28:12;;;;;;;1.73;0.90;;;;;;;26.71;36.79;101539.41;4966758;28;20035;-60
2023/05/13 09:30:40;;;;;;;1.00;0.80;;;;;;;26.66;37.33;101543.44;4968046;28;20039;-59
2023/05/13 09:33:12;;;;;;;1.00;0.90;;;;;;;26.18;36.91;101534.69;4972847;28;20030;-57
2023/05/13 09:35:40;;;;;;;2.47;1.20;;;;;;;26.19;37.04;101531.47;4982842;28;20058;-60
2023/05/13 09:38:13;;;;;;;1.48;0.88;;;;;;;26.22;38.46;101536.16;4986072;28;20041;-57
2023/05/13 09:40:40;;;;;;;1.27;0.90;;;;;;;26.59;38.06;101537.38;4983334;28;20042;-60
2023/05/13 09:43:08;;;;;;;0.93;0.80;;;;;;;26.84;37.88;101537.38;4984289;28;20481;-60
2023/05/13 09:45:35;;;;;;;2.53;1.00;;;;;;;27.15;37.53;101530.00;4973365;28;20033;-58
2023/05/13 09:48:00;;;;;;;1.17;0.70;;;;;;;27.38;36.17;101537.16;4963643;28;20732;-56
2023/05/13 09:50:26;;;;;;;0.75;0.70;;;;;;;27.61;36.83;101540.28;4965249;28;20041;-58
2023/05/13 09:52:51;;;;;;;4.72;1.38;;;;;;;27.78;35.06;101545.63;4970140;28;20438;-59
2023/05/13 09:55:17;;;;;;;10.45;4.18;;;;;;;27.71;36.36;101534.78;4968419;28;20107;-59
2023/05/13 09:57:44;;;;;;;6.50;3.22;;;;;;;27.64;35.69;101533.06;4968442;28;20053;-59
2023/05/13 10:00:10;;;;;;;1.42;1.08;;;;;;;27.75;35.24;101527.13;4965755;28;20039;-59
2023/05/13 10:02:37;;;;;;;21.45;9.30;;;;;;;27.91;35.62;101538.03;4964193;28;20067;-60
2023/05/13 10:05:05;;;;;;;16.50;8.52;;;;;;;28.04;35.27;101533.97;4962857;28;20097;-58
2023/05/13 10:07:34;;;;;;;3.05;1.98;;;;;;;28.39;35.33;101537.38;4971665;28;20425;-57
2023/05/13 10:10:01;;;;;;;1.10;0.98;;;;;;;28.32;34.02;101541.19;4969684;28;20081;-58
2023/05/13 10:12:29;;;;;;;1.05;0.90;;;;;;;28.08;34.31;101533.84;4964342;28;20043;-56
2023/05/13 10:14:55;;;;;;;0.90;0.60;;;;;;;28.13;34.36;101534.00;4969341;28;20066;-58
2023/05/13 10:17:23;;;;;;;1.02;0.88;;;;;;;27.90;33.97;101533.69;4977270;28;20051;-55
2023/05/13 10:19:51;;;;;;;1.30;0.80;;;;;;;27.71;33.24;101538.34;4976758;28;20085;-49
2023/05/13 10:22:26;;;;;;;0.95;0.80;;;;;;;27.47;34.99;101537.22;4960772;28;20035;-55
2023/05/13 10:24:54;;;;;;;1.33;0.77;;;;;;;27.42;34.39;101532.28;4962677;28;20728;-55
2023/05/13 10:27:21;;;;;;;1.15;0.85;;;;;;;27.23;34.04;101517.50;4960892;28;20102;-49
2023/05/13 10:29:48;;;;;;;1.33;0.68;;;;;;;27.74;34.44;101523.59;4959933;28;20485;-52
2023/05/13 10:32:14;;;;;;;0.80;0.80;;;;;;;28.10;32.84;101526.63;4974205;28;20557;-57
2023/05/13 10:34:44;;;;;;;0.80;0.70;;;;;;;28.27;34.00;101514.06;4977284;28;20113;-49
2023/05/13 10:37:26;;;;;;;0.77;0.68;;;;;;;28.34;33.57;101516.56;4970338;28;20038;-51
2023/05/13 10:40:16;;;;;;;2.20;0.80;;;;;;;28.58;33.48;101524.38;4956169;28;20129;-54
2023/05/13 10:43:04;;;;;;;1.07;0.70;;;;;;;28.40;32.80;101506.41;4966384;28;20042;-52
2023/05/13 10:45:30;;;;;;;0.82;0.75;;;;;;;28.81;33.48;101519.06;4970511;28;20034;-53
2023/05/13 10:48:05;;;;;;;1.00;0.88;;;;;;;28.94;32.81;101527.25;4962263;28;20069;-54
2023/05/13 10:50:30;;;;;;;0.80;0.80;;;;;;;29.07;32.73;101525.13;4994163;22;20114;-64
2023/05/13 10:52:57;;;;;;;0.70;0.60;;;;;;;29.42;31.89;101523.63;4992290;28;20085;-63
2023/05/13 10:55:25;;;;;;;0.70;0.70;;;;;;;29.46;32.33;101517.91;4989219;28;20042;-64
2023/05/13 10:58:06;;;;;;;1.10;0.60;;;;;;;29.08;32.86;101508.00;4980918;28;20030;-64
2023/05/13 11:00:34;;;;;;;1.52;0.88;;;;;;;29.40;32.44;101509.44;4990966;28;20783;-62
2023/05/13 11:03:27;;;;;;;2.03;0.82;;;;;;;29.52;32.35;101504.94;4990937;28;20045;-63
2023/05/13 11:06:16;;;;;;;1.15;0.80;;;;;;;29.92;31.31;101503.50;4973844;28;20051;-64
2023/05/13 11:08:45;;;;;;;0.75;0.75;;;;;;;29.99;31.15;101494.84;4989908;28;20026;-64
2023/05/13 11:11:22;;;;;;;1.10;0.90;;;;;;;29.89;30.21;101501.66;4986790;28;20397;-63
2023/05/13 11:14:01;;;;;;;2.30;1.25;;;;;;;29.98;30.17;101507.19;4990074;28;20046;-60
2023/05/13 11:16:26;;;;;;;0.90;0.70;;;;;;;29.95;31.13;101499.00;4983664;28;20034;-61
2023/05/13 11:18:52;;;;;;;0.73;0.70;;;;;;;29.91;30.55;101503.97;4960057;28;20390;-64
2023/05/13 11:21:29;;;;;;;0.57;0.57;;;;;;;29.75;30.00;101496.00;4987497;28;20041;-60
2023/05/13 11:24:04;;;;;;;0.80;0.50;;;;;;;29.83;29.63;101500.72;4985120;28;20034;-59
2023/05/13 11:26:47;;;;;;;0.73;0.73;;;;;;;29.69;29.53;101498.59;4980746;28;20054;-61